createdAt,value
2019-02-02T00:02:29.675Z,11.10
2019-02-02T00:04:59.371Z,5.37
2019-02-02T00:07:29.141Z,6.28
2019-02-02T00:10:00.975Z,7.83
2019-02-02T00:12:30.585Z,7.47
2019-02-02T00:15:00.447Z,11.33
2019-02-02T00:17:30.142Z,6.35
2019-02-02T00:19:59.760Z,8.80
2019-02-02T00:22:29.376Z,11.53
2019-02-02T00:24:59.127Z,8.58
2019-02-02T00:27:28.751Z,6.03
2019-02-02T00:29:58.367Z,9.15
2019-02-02T00:32:27.988Z,5.25
2019-02-02T00:34:57.795Z,7.17
2019-02-02T00:37:27.493Z,9.50
2019-02-02T00:39:57.118Z,6.03
2019-02-02T00:42:26.737Z,7.05
2019-02-02T00:44:56.479Z,4.90
2019-02-02T00:47:26.262Z,7.05
2019-02-02T00:49:55.865Z,5.35
2019-02-02T00:52:25.540Z,6.10
2019-02-02T00:54:56.605Z,3.75
2019-02-02T00:57:26.233Z,7.67
2019-02-02T00:59:55.864Z,6.25
2019-02-02T01:02:26.494Z,6.25
2019-02-02T01:04:56.203Z,5.58
2019-02-02T01:07:25.890Z,5.95
2019-02-02T01:09:55.537Z,4.87
2019-02-02T01:12:25.159Z,6.17
2019-02-02T01:14:54.763Z,7.70
2019-02-02T01:17:24.458Z,7.00
2019-02-02T01:19:54.085Z,6.25
2019-02-02T01:22:23.705Z,7.60
2019-02-02T01:24:53.323Z,6.42
2019-02-02T01:27:22.928Z,6.10
2019-02-02T01:29:52.532Z,6.80
2019-02-02T01:32:23.430Z,7.28
2019-02-02T01:34:55.185Z,11.85
2019-02-02T01:37:24.805Z,4.83
2019-02-02T01:39:54.419Z,10.05
2019-02-02T01:42:26.959Z,8.18
2019-02-02T01:44:56.591Z,6.65
2019-02-02T01:47:26.274Z,6.03
2019-02-02T01:49:55.883Z,9.15
2019-02-02T01:52:25.481Z,8.88
2019-02-02T01:54:55.096Z,5.67
2019-02-02T01:57:24.710Z,6.25
2019-02-02T01:59:54.316Z,13.03
2019-02-02T02:02:23.931Z,9.50
2019-02-02T02:04:53.536Z,7.58
2019-02-02T02:07:25.448Z,8.60
2019-02-02T02:09:55.123Z,12.00
2019-02-02T02:12:24.747Z,10.15
2019-02-02T02:14:56.216Z,9.38
2019-02-02T02:17:25.910Z,5.30
2019-02-02T02:19:55.545Z,5.97
2019-02-02T02:22:25.235Z,5.42
2019-02-02T02:24:56.463Z,8.28
2019-02-02T02:27:26.124Z,5.60
2019-02-02T02:29:55.745Z,12.15
2019-02-02T02:32:25.363Z,7.90
2019-02-02T02:34:54.988Z,10.18
2019-02-02T02:37:24.593Z,6.87
2019-02-02T02:39:54.208Z,8.53
2019-02-02T02:42:26.487Z,7.33
2019-02-02T02:44:56.220Z,9.03
2019-02-02T02:47:25.837Z,7.25
2019-02-02T02:49:55.451Z,7.22
2019-02-02T02:52:25.123Z,6.83
2019-02-02T02:54:54.743Z,6.72
2019-02-02T02:57:24.354Z,17.85
2019-02-02T02:59:53.969Z,6.50
2019-02-02T03:02:23.568Z,6.10
2019-02-02T03:04:53.180Z,7.85
2019-02-02T03:07:22.836Z,6.17
2019-02-02T03:09:52.515Z,5.62
2019-02-02T03:12:22.138Z,9.73
2019-02-02T03:14:51.743Z,5.37
2019-02-02T03:17:21.408Z,6.95
2019-02-02T03:19:51.118Z,7.05
2019-02-02T03:22:26.796Z,7.95
2019-02-02T03:24:56.448Z,10.78
2019-02-02T03:27:26.048Z,5.37
2019-02-02T03:29:55.746Z,6.37
2019-02-02T03:32:25.357Z,8.03
2019-02-02T03:34:54.989Z,8.25
2019-02-02T03:37:24.609Z,9.73
2019-02-02T03:39:54.359Z,6.05
2019-02-02T03:42:23.974Z,7.58
2019-02-02T03:44:56.217Z,9.10
2019-02-02T03:47:25.893Z,9.98
2019-02-02T03:49:55.495Z,9.35
2019-02-02T03:52:25.106Z,5.92
2019-02-02T03:54:56.430Z,12.25
2019-02-02T03:57:26.078Z,8.05
2019-02-02T03:59:55.878Z,6.25
2019-02-02T04:02:25.647Z,6.35
2019-02-02T04:04:55.266Z,7.60
2019-02-02T04:07:24.924Z,7.87
2019-02-02T04:09:57.018Z,5.22
2019-02-02T04:12:26.657Z,10.43
2019-02-02T04:15:03.123Z,5.30
2019-02-02T04:17:32.745Z,10.08
2019-02-02T04:20:02.370Z,7.45
2019-02-02T04:22:31.982Z,8.70
2019-02-02T04:25:01.607Z,11.28
2019-02-02T04:27:31.242Z,10.75
2019-02-02T04:30:01.762Z,7.42
2019-02-02T04:32:31.383Z,9.65
2019-02-02T04:35:01.014Z,8.13
2019-02-02T04:37:38.515Z,5.97
2019-02-02T04:40:11.511Z,6.50
2019-02-02T04:42:41.202Z,7.00
2019-02-02T04:45:11.848Z,9.80
2019-02-02T04:47:48.093Z,8.13
2019-02-02T04:50:17.905Z,8.73
2019-02-02T04:52:47.659Z,8.73
2019-02-02T04:55:18.513Z,8.13
2019-02-02T04:57:48.199Z,8.63
2019-02-02T05:00:20.688Z,8.95
2019-02-02T05:02:50.863Z,8.58
2019-02-02T05:05:20.790Z,7.35
2019-02-02T05:07:50.608Z,9.00
2019-02-02T05:10:21.315Z,7.78
2019-02-02T05:12:51.381Z,7.20
2019-02-02T05:15:21.215Z,8.63
2019-02-02T05:17:51.191Z,10.18
2019-02-02T05:20:21.847Z,5.97
2019-02-02T05:22:51.548Z,8.38
2019-02-02T05:25:21.279Z,7.53
2019-02-02T05:27:50.891Z,8.95
2019-02-02T05:30:26.093Z,10.75
2019-02-02T05:32:55.711Z,7.87
2019-02-02T05:35:25.494Z,8.68
2019-02-02T05:37:55.193Z,8.30
2019-02-02T05:40:24.946Z,8.48
2019-02-02T05:42:54.704Z,8.33
2019-02-02T05:45:24.796Z,8.70
2019-02-02T05:47:54.406Z,10.28
2019-02-02T05:50:24.186Z,8.00
2019-02-02T05:52:53.805Z,9.85
2019-02-02T05:55:23.589Z,10.43
2019-02-02T05:57:53.343Z,8.13
2019-02-02T06:00:31.401Z,7.65
2019-02-02T06:03:01.015Z,6.62
2019-02-02T06:05:30.646Z,7.47
2019-02-02T06:08:00.269Z,10.35
2019-02-02T06:10:29.873Z,9.53
2019-02-02T06:12:59.492Z,8.98
2019-02-02T06:15:29.238Z,10.78
2019-02-02T06:17:58.973Z,17.00
2019-02-02T06:20:28.583Z,10.05
2019-02-02T06:22:58.209Z,9.15
2019-02-02T06:25:27.838Z,8.88
2019-02-02T06:27:57.443Z,7.92
2019-02-02T06:30:27.382Z,9.95
2019-02-02T06:32:57.080Z,13.03
2019-02-02T06:35:26.996Z,11.80
2019-02-02T06:37:56.628Z,10.40
2019-02-02T06:40:26.264Z,8.83
2019-02-02T06:42:55.975Z,16.45
2019-02-02T06:45:28.119Z,9.00
2019-02-02T06:47:57.912Z,9.28
2019-02-02T06:50:27.599Z,10.38
2019-02-02T06:52:57.453Z,11.88
2019-02-02T06:55:27.074Z,14.23
2019-02-02T06:57:56.759Z,10.18
2019-02-02T07:00:26.913Z,8.15
2019-02-02T07:02:58.281Z,10.23
2019-02-02T07:05:28.035Z,15.78
2019-02-02T07:07:57.674Z,10.82
2019-02-02T07:10:27.654Z,12.10
2019-02-02T07:12:57.413Z,8.88
2019-02-02T07:15:28.429Z,10.65
2019-02-02T07:17:58.239Z,20.02
2019-02-02T07:20:27.930Z,9.88
2019-02-02T07:22:57.530Z,12.13
2019-02-02T07:25:27.159Z,11.20
2019-02-02T07:27:56.778Z,10.80
2019-02-02T07:30:29.170Z,17.17
2019-02-02T07:32:57.907Z,14.05
2019-02-02T07:35:27.637Z,14.40
2019-02-02T07:37:57.393Z,12.60
2019-02-02T07:40:27.132Z,11.80
2019-02-02T07:42:56.777Z,13.13
2019-02-02T07:45:28.587Z,11.65
2019-02-02T07:47:58.218Z,13.03
2019-02-02T07:50:29.278Z,12.70
2019-02-02T07:52:58.930Z,15.25
2019-02-02T07:55:28.655Z,13.00
2019-02-02T07:57:58.276Z,16.30
2019-02-02T08:00:40.452Z,14.55
2019-02-02T08:03:01.575Z,12.75
2019-02-02T08:05:31.351Z,12.68
2019-02-02T08:08:01.058Z,10.70
2019-02-02T08:10:32.624Z,18.25
2019-02-02T08:13:02.273Z,21.73
2019-02-02T08:15:32.793Z,13.43
2019-02-02T08:18:02.505Z,15.30
2019-02-02T08:20:33.285Z,11.38
2019-02-02T08:23:03.018Z,16.42
2019-02-02T08:25:32.724Z,10.75
2019-02-02T08:28:02.359Z,12.63
2019-02-02T08:30:35.602Z,14.55
2019-02-02T08:33:05.646Z,11.65
2019-02-02T08:35:35.343Z,13.08
2019-02-02T08:38:05.443Z,10.13
2019-02-02T08:40:35.062Z,8.25
2019-02-02T08:43:04.831Z,13.38
2019-02-02T08:45:36.079Z,13.22
2019-02-02T08:48:05.789Z,9.33
2019-02-02T08:50:37.534Z,6.80
2019-02-02T08:53:07.458Z,6.90
2019-02-02T08:55:37.400Z,8.58
2019-02-02T08:58:07.247Z,7.35
2019-02-02T09:00:40.012Z,8.25
2019-02-02T09:03:09.643Z,9.15
2019-02-02T09:05:40.926Z,14.15
2019-02-02T09:08:10.533Z,10.48
2019-02-02T09:10:40.169Z,11.33
2019-02-02T09:13:11.001Z,15.58
2019-02-02T09:15:40.678Z,14.40
2019-02-02T09:18:10.385Z,13.75
2019-02-02T09:20:42.499Z,11.03
2019-02-02T09:23:12.209Z,12.95
2019-02-02T09:25:41.909Z,8.38
2019-02-02T09:28:11.527Z,11.50
2019-02-02T09:30:41.149Z,7.03
2019-02-02T09:33:10.757Z,7.15
2019-02-02T09:35:40.435Z,9.33
2019-02-02T09:38:13.063Z,7.22
2019-02-02T09:40:44.380Z,11.20
2019-02-02T09:43:14.098Z,8.55
2019-02-02T09:45:43.892Z,8.25
2019-02-02T09:48:16.466Z,9.85
2019-02-02T09:50:46.185Z,7.25
2019-02-02T09:53:15.804Z,10.82
2019-02-02T09:55:45.407Z,9.63
2019-02-02T09:58:15.020Z,7.72
2019-02-02T10:00:44.624Z,7.35
2019-02-02T10:03:14.246Z,10.08
2019-02-02T10:05:46.132Z,7.65
2019-02-02T10:08:15.819Z,6.12
2019-02-02T10:10:45.451Z,10.08
2019-02-02T10:13:15.150Z,6.87
2019-02-02T10:15:49.878Z,7.05
2019-02-02T10:18:19.571Z,9.63
2019-02-02T10:20:49.345Z,7.12
2019-02-02T10:23:19.072Z,7.95
2019-02-02T10:25:48.695Z,7.20
2019-02-02T10:28:18.581Z,12.73
2019-02-02T10:30:48.326Z,7.17
2019-02-02T10:33:17.972Z,10.78
2019-02-02T10:35:47.705Z,11.28
2019-02-02T10:38:17.341Z,11.40
2019-02-02T10:40:47.326Z,8.90
2019-02-02T10:43:17.000Z,7.10
2019-02-02T10:45:46.779Z,7.08
2019-02-02T10:48:16.396Z,8.10
2019-02-02T10:50:46.119Z,8.83
2019-02-02T10:53:18.479Z,6.55
2019-02-02T10:55:50.712Z,10.60
2019-02-02T10:58:20.334Z,7.70
2019-02-02T11:00:52.994Z,14.85
2019-02-02T11:03:22.764Z,9.80
2019-02-02T11:05:52.458Z,8.53
2019-02-02T11:08:22.195Z,8.65
2019-02-02T11:10:52.192Z,9.50
2019-02-02T11:13:21.980Z,8.68
2019-02-02T11:15:51.972Z,8.28
2019-02-02T11:18:24.810Z,14.90
2019-02-02T11:20:54.466Z,13.85
2019-02-02T11:23:24.113Z,8.00
2019-02-02T11:25:53.789Z,7.70
2019-02-02T11:28:23.478Z,7.65
2019-02-02T11:30:54.166Z,7.70
2019-02-02T11:33:23.947Z,17.07
2019-02-02T11:35:53.569Z,10.63
2019-02-02T11:38:23.176Z,8.98
2019-02-02T11:40:53.855Z,14.00
2019-02-02T11:43:23.668Z,10.25
2019-02-02T11:45:55.153Z,10.48
2019-02-02T11:48:26.126Z,13.58
2019-02-02T11:50:55.755Z,14.47
2019-02-02T11:53:25.393Z,10.15
2019-02-02T11:55:55.027Z,11.10
2019-02-02T11:58:24.674Z,12.10
2019-02-02T12:00:54.320Z,20.35
2019-02-02T12:03:23.966Z,13.25
2019-02-02T12:05:57.406Z,7.92
2019-02-02T12:08:27.033Z,10.10
2019-02-02T12:10:56.863Z,12.43
2019-02-02T12:13:26.491Z,15.60
2019-02-02T12:15:56.108Z,12.73
2019-02-02T12:18:25.741Z,12.43
2019-02-02T12:20:55.451Z,15.20
2019-02-02T12:23:25.086Z,8.75
2019-02-02T12:25:57.682Z,13.22
2019-02-02T12:28:27.371Z,12.63
2019-02-02T12:30:57.023Z,11.75
2019-02-02T12:33:27.990Z,19.00
2019-02-02T12:35:57.692Z,14.85
2019-02-02T12:38:27.331Z,9.63
2019-02-02T12:41:03.129Z,10.48
2019-02-02T12:43:33.288Z,12.43
2019-02-02T12:46:02.918Z,10.78
2019-02-02T12:48:34.711Z,10.18
2019-02-02T12:51:06.034Z,11.05
2019-02-02T12:53:35.738Z,7.35
2019-02-02T12:56:05.553Z,13.25
2019-02-02T12:58:35.243Z,12.50
2019-02-02T13:01:05.103Z,8.50
2019-02-02T13:03:34.731Z,9.90
2019-02-02T13:06:04.563Z,16.40
2019-02-02T13:08:36.537Z,11.03
2019-02-02T13:11:06.248Z,13.90
2019-02-02T13:13:35.895Z,15.05
2019-02-02T13:16:05.530Z,8.55
2019-02-02T13:18:44.337Z,11.10
2019-02-02T13:21:13.991Z,9.13
2019-02-02T13:23:43.603Z,8.25
2019-02-02T13:26:13.322Z,14.70
2019-02-02T13:28:44.204Z,11.48
2019-02-02T13:31:14.223Z,8.95
2019-02-02T13:33:44.160Z,9.45
2019-02-02T13:36:13.850Z,5.70
2019-02-02T13:38:43.558Z,10.25
2019-02-02T13:41:13.284Z,12.90
2019-02-02T13:43:42.899Z,8.18
2019-02-02T13:46:12.623Z,8.83
2019-02-02T13:48:43.581Z,7.28
2019-02-02T13:51:13.564Z,9.25
2019-02-02T13:53:43.171Z,7.92
2019-02-02T13:56:15.816Z,8.50
2019-02-02T13:58:45.487Z,9.30
2019-02-02T14:01:17.976Z,14.87
2019-02-02T14:03:47.592Z,11.33
2019-02-02T14:06:17.223Z,8.00
2019-02-02T14:08:46.860Z,8.65
2019-02-02T14:11:16.486Z,9.48
2019-02-02T14:13:46.098Z,7.37
2019-02-02T14:16:18.649Z,8.75
2019-02-02T14:18:48.256Z,10.48
2019-02-02T14:21:17.898Z,7.80
2019-02-02T14:23:47.517Z,7.70
2019-02-02T14:26:17.139Z,7.95
2019-02-02T14:28:48.199Z,13.68
2019-02-02T14:31:17.917Z,19.00
2019-02-02T14:33:47.633Z,8.63
2019-02-02T14:36:18.399Z,9.65
2019-02-02T14:38:48.037Z,7.90
2019-02-02T14:41:17.671Z,8.28
2019-02-02T14:43:47.454Z,7.28
2019-02-02T14:46:17.100Z,7.40
2019-02-02T14:48:46.778Z,9.35
2019-02-02T14:51:16.407Z,8.40
2019-02-02T14:53:46.045Z,12.50
2019-02-02T14:56:16.722Z,10.93
2019-02-02T14:58:46.507Z,8.85
2019-02-02T15:01:16.403Z,10.88
2019-02-02T15:03:46.080Z,11.33
2019-02-02T15:06:16.002Z,8.53
2019-02-02T15:08:45.655Z,9.05
2019-02-02T15:11:15.475Z,7.03
2019-02-02T15:13:45.098Z,10.40
2019-02-02T15:16:14.779Z,9.35
2019-02-02T15:18:45.590Z,15.78
2019-02-02T15:21:15.215Z,15.23
2019-02-02T15:23:45.491Z,16.05
2019-02-02T15:26:17.021Z,8.90
2019-02-02T15:28:46.766Z,8.98
2019-02-02T15:31:16.409Z,11.85
2019-02-02T15:33:46.028Z,11.80
2019-02-02T15:36:15.925Z,10.18
2019-02-02T15:38:45.970Z,17.45
2019-02-02T15:41:15.927Z,11.80
2019-02-02T15:43:45.687Z,11.20
2019-02-02T15:46:16.928Z,12.90
2019-02-02T15:48:46.642Z,17.57
2019-02-02T15:51:16.376Z,16.93
2019-02-02T15:53:48.693Z,13.40
2019-02-02T15:56:17.503Z,11.73
2019-02-02T15:58:47.210Z,9.45
2019-02-02T16:01:16.823Z,12.78
2019-02-02T16:03:49.632Z,12.53
2019-02-02T16:06:17.982Z,8.78
2019-02-02T16:08:49.998Z,14.73
2019-02-02T16:11:19.736Z,11.73
2019-02-02T16:13:49.583Z,7.40
2019-02-02T16:16:19.350Z,17.07
2019-02-02T16:18:49.081Z,12.85
2019-02-02T16:21:18.760Z,7.37
2019-02-02T16:23:48.492Z,10.03
2019-02-02T16:26:18.147Z,15.05
2019-02-02T16:28:47.759Z,9.90
2019-02-02T16:31:17.450Z,8.10
2019-02-02T16:33:47.094Z,10.08
2019-02-02T16:36:16.704Z,9.63
2019-02-02T16:38:46.327Z,12.78
2019-02-02T16:41:16.057Z,10.63
2019-02-02T16:43:45.750Z,9.88
2019-02-02T16:46:15.378Z,20.52
2019-02-02T16:48:45.092Z,11.53
2019-02-02T16:51:14.779Z,10.88
2019-02-02T16:53:44.391Z,12.80
2019-02-02T16:56:14.042Z,15.40
2019-02-02T16:58:43.722Z,16.57
2019-02-02T17:01:13.418Z,19.52
2019-02-02T17:03:43.208Z,26.82
2019-02-02T17:06:12.844Z,21.82
2019-02-02T17:08:42.489Z,20.12
2019-02-02T17:11:12.195Z,15.32
2019-02-02T17:13:41.897Z,16.02
2019-02-02T17:16:11.923Z,16.55
2019-02-02T17:18:41.912Z,17.45
2019-02-02T17:21:11.665Z,17.07
2019-02-02T17:23:42.615Z,26.60
2019-02-02T17:26:12.354Z,16.55
2019-02-02T17:28:41.993Z,19.37
2019-02-02T17:31:11.726Z,19.80
2019-02-02T17:33:41.478Z,14.38
2019-02-02T17:36:11.266Z,17.10
2019-02-02T17:38:40.893Z,20.17
2019-02-02T17:41:10.535Z,22.73
2019-02-02T17:43:40.172Z,16.37
2019-02-02T17:46:09.822Z,16.90
2019-02-02T17:48:39.482Z,18.20
2019-02-02T17:51:09.197Z,15.95
2019-02-02T17:53:38.827Z,19.48
2019-02-02T17:56:08.517Z,15.90
2019-02-02T17:58:39.937Z,14.43
2019-02-02T18:01:09.821Z,17.52
2019-02-02T18:03:39.458Z,16.23
2019-02-02T18:06:09.102Z,10.13
2019-02-02T18:08:38.740Z,13.28
2019-02-02T18:11:08.593Z,12.55
2019-02-02T18:13:38.220Z,17.50
2019-02-02T18:16:07.867Z,18.75
2019-02-02T18:18:37.520Z,13.88
2019-02-02T18:21:07.234Z,16.80
2019-02-02T18:23:36.902Z,16.97
2019-02-02T18:26:06.614Z,14.23
2019-02-02T18:28:36.304Z,17.42
2019-02-02T18:31:06.022Z,10.35
2019-02-02T18:33:35.743Z,17.80
2019-02-02T18:36:05.688Z,17.25
2019-02-02T18:38:35.450Z,24.47
2019-02-02T18:41:08.076Z,15.43
2019-02-02T18:43:56.944Z,20.32
2019-02-02T18:46:26.568Z,13.93
2019-02-02T18:48:56.272Z,11.85
2019-02-02T18:51:25.903Z,20.80
2019-02-02T18:53:55.523Z,12.40
2019-02-02T18:56:25.147Z,17.45
2019-02-02T18:58:54.801Z,12.90
2019-02-02T19:01:24.438Z,21.07
2019-02-02T19:03:54.115Z,14.75
2019-02-02T19:06:23.731Z,18.87
2019-02-02T19:08:53.497Z,14.75
2019-02-02T19:11:23.187Z,20.17
2019-02-02T19:13:52.813Z,20.17
2019-02-02T19:16:23.545Z,19.07
2019-02-02T19:18:53.203Z,22.52
2019-02-02T19:21:22.845Z,17.77
2019-02-02T19:24:04.810Z,21.73
2019-02-02T19:26:37.214Z,24.45
2019-02-02T19:29:06.854Z,15.63
2019-02-02T19:31:36.507Z,24.02
2019-02-02T19:34:06.261Z,16.85
2019-02-02T19:36:35.947Z,21.82
2019-02-02T19:39:08.686Z,18.67
2019-02-02T19:41:39.333Z,25.05
2019-02-02T19:44:09.029Z,18.75
2019-02-02T19:46:38.650Z,15.05
2019-02-02T19:49:08.286Z,20.48
2019-02-02T19:51:37.936Z,15.72
2019-02-02T19:54:07.821Z,19.75
2019-02-02T19:56:37.507Z,14.40
2019-02-02T19:59:08.157Z,20.35
2019-02-02T20:01:37.841Z,23.52
2019-02-02T20:04:07.603Z,16.25
2019-02-02T20:06:37.330Z,16.95
2019-02-02T20:09:08.538Z,15.95
2019-02-02T20:11:38.183Z,16.40
2019-02-02T20:14:07.797Z,14.87
2019-02-02T20:16:37.517Z,29.00
2019-02-02T20:19:07.177Z,20.95
2019-02-02T20:21:36.839Z,16.00
2019-02-02T20:24:06.546Z,19.82
2019-02-02T20:26:39.544Z,15.90
2019-02-02T20:29:09.194Z,14.43
2019-02-02T20:31:38.808Z,14.53
2019-02-02T20:34:11.271Z,15.63
2019-02-02T20:36:40.956Z,20.68
2019-02-02T20:39:10.772Z,17.42
2019-02-02T20:41:42.693Z,27.10
2019-02-02T20:44:12.319Z,22.58
2019-02-02T20:46:41.958Z,16.50
2019-02-02T20:49:11.587Z,17.95
2019-02-02T20:51:53.656Z,23.65
2019-02-02T20:54:23.292Z,16.05
2019-02-02T20:56:52.918Z,17.07
2019-02-02T20:59:24.942Z,15.10
2019-02-02T21:01:54.624Z,14.83
2019-02-02T21:04:25.676Z,15.98
2019-02-02T21:06:55.580Z,19.50
2019-02-02T21:09:25.208Z,15.38
2019-02-02T21:11:57.121Z,16.82
2019-02-02T21:14:26.149Z,19.98
2019-02-02T21:16:55.769Z,20.50
2019-02-02T21:19:25.844Z,14.15
2019-02-02T21:21:55.490Z,25.88
2019-02-02T21:24:25.150Z,15.70
2019-02-02T21:26:54.791Z,17.27
2019-02-02T21:29:24.450Z,18.73
2019-02-02T21:31:54.196Z,11.70
2019-02-02T21:34:23.857Z,17.55
2019-02-02T21:36:56.282Z,15.90
2019-02-02T21:39:25.956Z,17.30
2019-02-02T21:41:55.574Z,14.68
2019-02-02T21:44:25.192Z,15.68
2019-02-02T21:46:54.838Z,15.65
2019-02-02T21:49:24.649Z,26.02
2019-02-02T21:51:54.319Z,21.27
2019-02-02T21:54:25.809Z,13.60
2019-02-02T21:56:55.251Z,23.60
2019-02-02T21:59:24.891Z,16.05
2019-02-02T22:01:54.534Z,14.95
2019-02-02T22:04:24.173Z,16.42
2019-02-02T22:06:53.806Z,19.50
2019-02-02T22:09:23.437Z,15.05
2019-02-02T22:11:53.305Z,17.27
2019-02-02T22:14:22.937Z,14.53
2019-02-02T22:16:52.559Z,13.25
2019-02-02T22:19:22.276Z,15.32
2019-02-02T22:21:51.891Z,10.85
2019-02-02T22:24:21.892Z,12.50
2019-02-02T22:26:51.506Z,26.82
2019-02-02T22:29:21.154Z,13.10
2019-02-02T22:31:50.769Z,14.20
2019-02-02T22:34:20.412Z,14.98
2019-02-02T22:36:50.398Z,11.68
2019-02-02T22:39:20.021Z,17.40
2019-02-02T22:41:49.646Z,16.70
2019-02-02T22:44:19.248Z,15.00
2019-02-02T22:46:50.105Z,11.43
2019-02-02T22:49:20.078Z,11.97
2019-02-02T22:51:49.699Z,15.25
2019-02-02T22:54:19.341Z,12.28
2019-02-02T22:56:48.962Z,15.85
2019-02-02T22:59:18.579Z,15.60
2019-02-02T23:01:53.303Z,14.98
2019-02-02T23:04:45.115Z,18.57
2019-02-02T23:07:25.268Z,13.68
2019-02-02T23:10:24.989Z,12.30
2019-02-02T23:13:19.470Z,11.60
2019-02-02T23:16:06.431Z,17.85
2019-02-02T23:18:36.148Z,11.38
2019-02-02T23:21:06.867Z,10.50
2019-02-02T23:23:36.535Z,19.35
2019-02-02T23:26:06.313Z,11.22
2019-02-02T23:28:35.984Z,16.90
2019-02-02T23:31:05.635Z,11.97
2019-02-02T23:33:35.357Z,15.70
2019-02-02T23:36:05.120Z,16.32
2019-02-02T23:38:34.766Z,11.40
2019-02-02T23:41:04.467Z,12.23
2019-02-02T23:43:34.126Z,19.82
2019-02-02T23:46:04.042Z,13.65
2019-02-02T23:48:33.715Z,13.08
2019-02-02T23:51:03.700Z,16.17
2019-02-02T23:53:35.475Z,10.28
2019-02-02T23:56:09.850Z,13.03
2019-02-02T23:58:39.473Z,14.28
